Time;durP1;ratioP1;P1;durP2;ratioP2;P2;SDS_P1;SDS_P2;PMS_P1;PMS_P2;Temp;Humidity;BMP_temperature;BMP_pressure;BME280_temperature;BME280_humidity;BME280_pressure;Samples;Min_cycle;Max_cycle;Signal;HPM_P1;HPM_P2
2022/06/21 00:00:38;;;;;;;1.02;1.00;;;;;;;;;;5047291;28;20540;-57
2022/06/21 00:03:09;;;;;;;1.10;1.00;;;;;;;;;;5070710;28;20021;-57
2022/06/21 00:05:37;;;;;;;0.90;0.90;;;;;;;;;;5072203;28;20032;-57
2022/06/21 00:08:12;;;;;;;1.10;0.82;;;;;;;;;;5066836;28;20028;-57
2022/06/21 00:10:38;;;;;;;1.90;1.08;;;;;;;;;;5067480;28;20609;-57
2022/06/21 00:13:08;;;;;;;1.17;1.00;;;;;;;;;;5067549;28;20573;-56
2022/06/21 00:15:34;;;;;;;1.10;1.00;;;;;;;;;;5067175;28;20024;-57
2022/06/21 00:18:01;;;;;;;0.90;0.90;;;;;;;;;;5067780;28;20060;-57
2022/06/21 00:20:28;;;;;;;1.08;0.98;;;;;;;;;;5064642;28;20028;-57
2022/06/21 00:22:55;;;;;;;1.55;0.80;;;;;;;;;;5065022;28;20028;-57
2022/06/21 00:25:23;;;;;;;1.08;0.98;;;;;;;;;;5066354;28;20579;-57
2022/06/21 00:27:51;;;;;;;1.02;0.93;;;;;;;;;;5066102;28;20032;-57
2022/06/21 00:30:17;;;;;;;0.93;0.80;;;;;;;;;;5066462;28;20039;-57
2022/06/21 00:32:43;;;;;;;0.90;0.70;;;;;;;;;;5065193;28;20477;-57
2022/06/21 00:35:11;;;;;;;0.93;0.77;;;;;;;;;;5065683;28;20085;-57
2022/06/21 00:37:39;;;;;;;0.70;0.70;;;;;;;;;;5064667;28;20103;-57
2022/06/21 00:40:20;;;;;;;0.80;0.60;;;;;;;;;;5065756;28;20558;-57
2022/06/21 00:43:09;;;;;;;1.23;0.90;;;;;;;;;;5065899;28;20419;-57
2022/06/21 00:45:37;;;;;;;1.38;0.88;;;;;;;;;;5061971;28;20374;-57
2022/06/21 00:48:10;;;;;;;0.80;0.80;;;;;;;;;;5050144;28;20028;-57
2022/06/21 00:50:38;;;;;;;0.93;0.88;;;;;;;;;;5045172;28;20056;-57
2022/06/21 00:53:22;;;;;;;0.98;0.70;;;;;;;;;;5054381;28;20024;-57
2022/06/21 00:55:52;;;;;;;0.90;0.90;;;;;;;;;;5065757;28;20058;-57
2022/06/21 00:58:20;;;;;;;0.80;0.80;;;;;;;;;;5066048;28;20046;-57
2022/06/21 01:00:52;;;;;;;2.55;1.20;;;;;;;;;;5064955;28;20059;-57
2022/06/21 01:03:20;;;;;;;1.10;0.95;;;;;;;;;;5065465;28;20025;-57
2022/06/21 01:05:47;;;;;;;1.33;1.10;;;;;;;;;;5065755;28;20520;-57
2022/06/21 01:08:34;;;;;;;0.73;0.70;;;;;;;;;;5064688;28;20036;-57
2022/06/21 01:11:05;;;;;;;0.88;0.80;;;;;;;;;;5057033;28;20288;-57
2022/06/21 01:13:32;;;;;;;1.10;1.00;;;;;;;;;;5044870;28;20032;-57
2022/06/21 01:15:59;;;;;;;0.73;0.70;;;;;;;;;;5045386;28;20025;-57
2022/06/21 01:18:26;;;;;;;1.10;0.80;;;;;;;;;;5044502;28;20017;-57
2022/06/21 01:20:55;;;;;;;0.95;0.90;;;;;;;;;;5045188;28;20025;-57
2022/06/21 01:23:30;;;;;;;0.85;0.80;;;;;;;;;;5045356;28;20078;-57
2022/06/21 01:26:03;;;;;;;2.00;1.20;;;;;;;;;;5044411;28;20033;-57
2022/06/21 01:28:30;;;;;;;0.98;0.90;;;;;;;;;;5044781;28;20492;-57
2022/06/21 01:30:57;;;;;;;1.10;1.02;;;;;;;;;;5044918;28;20104;-57
2022/06/21 01:33:31;;;;;;;1.45;1.10;;;;;;;;;;5059788;28;20041;-57
2022/06/21 01:36:00;;;;;;;1.20;1.10;;;;;;;;;;5065125;28;20054;-57
2022/06/21 01:38:30;;;;;;;1.23;0.98;;;;;;;;;;5045446;28;20467;-57
2022/06/21 01:40:59;;;;;;;0.70;0.70;;;;;;;;;;5044330;28;20385;-57
2022/06/21 01:43:28;;;;;;;0.90;0.90;;;;;;;;;;5044396;28;20029;-57
2022/06/21 01:46:02;;;;;;;1.15;0.82;;;;;;;;;;5044663;28;20021;-57
2022/06/21 01:48:30;;;;;;;1.00;0.80;;;;;;;;;;5048352;28;20399;-57
2022/06/21 01:51:02;;;;;;;1.02;0.90;;;;;;;;;;5064414;28;20034;-57
2022/06/21 01:53:28;;;;;;;1.27;0.80;;;;;;;;;;5062912;28;20289;-57
2022/06/21 01:56:01;;;;;;;1.00;0.88;;;;;;;;;;5064344;28;20037;-57
2022/06/21 01:58:30;;;;;;;1.55;0.93;;;;;;;;;;5064483;28;20036;-57
2022/06/21 02:01:00;;;;;;;1.05;0.70;;;;;;;;;;5064487;28;20021;-57
2022/06/21 02:03:31;;;;;;;1.10;0.90;;;;;;;;;;5063833;28;20397;-57
2022/06/21 02:05:58;;;;;;;1.60;1.15;;;;;;;;;;5064543;28;20111;-57
2022/06/21 02:08:26;;;;;;;1.95;0.95;;;;;;;;;;5063734;28;20515;-57
2022/06/21 02:10:58;;;;;;;2.90;1.08;;;;;;;;;;5064864;28;20028;-58
2022/06/21 02:13:30;;;;;;;1.60;1.17;;;;;;;;;;5064409;28;20024;-57
2022/06/21 02:16:01;;;;;;;2.33;1.08;;;;;;;;;;5064351;28;20082;-57
2022/06/21 02:18:30;;;;;;;1.20;1.10;;;;;;;;;;5064424;28;20052;-57
2022/06/21 02:21:03;;;;;;;1.70;1.20;;;;;;;;;;5054107;28;20531;-57
2022/06/21 02:23:29;;;;;;;1.70;1.10;;;;;;;;;;5043904;28;20052;-57
2022/06/21 02:25:56;;;;;;;1.17;1.08;;;;;;;;;;5044584;28;20392;-57
2022/06/21 02:28:22;;;;;;;1.05;0.98;;;;;;;;;;5045018;28;20036;-57
2022/06/21 02:30:49;;;;;;;1.05;1.00;;;;;;;;;;5046124;28;20036;-57
2022/06/21 02:33:18;;;;;;;0.60;0.60;;;;;;;;;;5047949;28;20029;-57
2022/06/21 02:35:50;;;;;;;0.77;0.77;;;;;;;;;;5047698;28;20033;-57
2022/06/21 02:38:18;;;;;;;1.02;0.82;;;;;;;;;;5048097;28;20056;-57
2022/06/21 02:40:47;;;;;;;1.27;0.90;;;;;;;;;;5047808;28;20029;-57
2022/06/21 02:43:19;;;;;;;0.95;0.95;;;;;;;;;;5048011;28;20029;-57
2022/06/21 02:45:55;;;;;;;0.77;0.77;;;;;;;;;;5047679;28;20021;-56
2022/06/21 02:48:32;;;;;;;0.80;0.80;;;;;;;;;;5048365;28;20037;-57
2022/06/21 02:51:01;;;;;;;1.10;1.00;;;;;;;;;;5047910;28;20022;-57
2022/06/21 02:53:32;;;;;;;1.58;1.10;;;;;;;;;;5047371;28;20029;-57
2022/06/21 02:56:16;;;;;;;1.23;0.98;;;;;;;;;;5047277;28;20539;-57
2022/06/21 02:58:55;;;;;;;2.03;1.10;;;;;;;;;;5047500;28;20029;-57
2022/06/21 03:01:27;;;;;;;1.58;0.98;;;;;;;;;;5048079;28;20498;-57
2022/06/21 03:03:54;;;;;;;1.10;1.00;;;;;;;;;;5047695;28;20025;-57
2022/06/21 03:06:21;;;;;;;1.80;1.00;;;;;;;;;;5048048;28;20021;-57
2022/06/21 03:08:53;;;;;;;1.33;1.00;;;;;;;;;;5060337;28;20036;-57
2022/06/21 03:11:20;;;;;;;1.10;1.00;;;;;;;;;;5068219;28;20468;-57
2022/06/21 03:13:46;;;;;;;1.20;1.10;;;;;;;;;;5067391;28;20551;-57
2022/06/21 03:16:14;;;;;;;1.05;0.95;;;;;;;;;;5067410;28;20780;-57
2022/06/21 03:18:44;;;;;;;1.17;1.10;;;;;;;;;;5067076;28;20017;-57
2022/06/21 03:21:12;;;;;;;3.60;0.73;;;;;;;;;;5066814;28;20024;-57
2022/06/21 03:23:39;;;;;;;2.65;0.90;;;;;;;;;;5066446;28;20017;-57
2022/06/21 03:26:06;;;;;;;0.75;0.75;;;;;;;;;;5067417;28;20056;-56
2022/06/21 03:28:33;;;;;;;1.40;0.90;;;;;;;;;;5066921;28;20032;-57
2022/06/21 03:31:04;;;;;;;1.40;1.08;;;;;;;;;;5063991;28;20514;-57
2022/06/21 03:33:32;;;;;;;0.80;0.75;;;;;;;;;;5066942;28;20103;-57
2022/06/21 03:35:58;;;;;;;1.25;0.90;;;;;;;;;;5060457;28;20031;-57
2022/06/21 03:38:25;;;;;;;1.00;0.70;;;;;;;;;;5046784;28;20116;-57
2022/06/21 03:43:38;;;;;;;1.70;0.95;;;;;;;;;;5046040;28;20056;-57
2022/06/21 03:46:08;;;;;;;0.90;0.90;;;;;;;;;;5054500;28;20024;-57
2022/06/21 03:48:38;;;;;;;0.80;0.80;;;;;;;;;;5066457;28;20499;-57
2022/06/21 03:51:09;;;;;;;1.10;1.00;;;;;;;;;;5066680;28;20033;-57
2022/06/21 03:53:41;;;;;;;0.95;0.80;;;;;;;;;;5066400;28;20028;-57
2022/06/21 03:56:10;;;;;;;1.50;0.85;;;;;;;;;;5066154;28;20043;-57
2022/06/21 03:58:55;;;;;;;1.00;0.90;;;;;;;;;;5065934;28;20107;-57
2022/06/21 04:01:21;;;;;;;;;;;;;;;;;;5049233;28;20029;-57
2022/06/21 04:04:07;;;;;;;1.30;1.00;;;;;;;;;;5046109;28;20359;-57
2022/06/21 04:06:42;;;;;;;1.23;0.95;;;;;;;;;;5045625;28;20083;-57
2022/06/21 04:09:28;;;;;;;0.80;0.80;;;;;;;;;;5046133;28;20040;-57
2022/06/21 04:12:26;;;;;;;1.00;0.80;;;;;;;;;;5047069;28;20032;-57
2022/06/21 04:15:08;;;;;;;1.40;0.90;;;;;;;;;;5042522;28;20041;-57
2022/06/21 04:17:41;;;;;;;0.82;0.82;;;;;;;;;;5065938;28;20036;-57
2022/06/21 04:20:25;;;;;;;1.02;0.98;;;;;;;;;;5065900;28;20032;-57
2022/06/21 04:23:24;;;;;;;1.52;1.10;;;;;;;;;;5065362;28;20020;-57
2022/06/21 04:25:53;;;;;;;1.02;0.80;;;;;;;;;;5054211;28;20035;-57
2022/06/21 04:28:22;;;;;;;0.93;0.80;;;;;;;;;;5066213;28;20551;-57
2022/06/21 04:30:54;;;;;;;0.98;0.88;;;;;;;;;;5065642;28;20111;-57
2022/06/21 04:33:30;;;;;;;1.10;0.95;;;;;;;;;;5064848;28;20032;-57
2022/06/21 04:36:04;;;;;;;1.02;0.95;;;;;;;;;;5065811;28;20033;-57
2022/06/21 04:38:51;;;;;;;1.30;1.20;;;;;;;;;;5064018;28;20074;-57
2022/06/21 04:41:30;;;;;;;1.02;0.80;;;;;;;;;;5065616;28;20020;-57
2022/06/21 04:43:57;;;;;;;0.93;0.90;;;;;;;;;;5065543;28;20178;-57
2022/06/21 04:46:42;;;;;;;2.15;0.80;;;;;;;;;;5052270;28;20041;-57
2022/06/21 04:49:20;;;;;;;1.58;1.23;;;;;;;;;;5056724;28;20030;-57
2022/06/21 04:51:49;;;;;;;1.50;1.10;;;;;;;;;;5064934;28;20060;-57
2022/06/21 04:54:24;;;;;;;0.85;0.80;;;;;;;;;;5065301;28;20082;-56
2022/06/21 04:57:09;;;;;;;1.58;0.90;;;;;;;;;;5065840;28;20518;-57
2022/06/21 04:59:37;;;;;;;0.70;0.70;;;;;;;;;;5064849;28;20567;-57
2022/06/21 05:02:04;;;;;;;1.63;1.00;;;;;;;;;;5065156;28;20035;-57
2022/06/21 05:04:39;;;;;;;0.88;0.88;;;;;;;;;;5063967;28;20490;-57
2022/06/21 05:07:08;;;;;;;0.88;0.80;;;;;;;;;;5065472;28;20024;-57
2022/06/21 05:09:35;;;;;;;0.88;0.88;;;;;;;;;;5065064;28;20035;-57
2022/06/21 05:12:06;;;;;;;1.08;0.98;;;;;;;;;;5064988;28;20227;-57
2022/06/21 05:14:36;;;;;;;1.10;1.00;;;;;;;;;;5064849;28;20024;-57
2022/06/21 05:17:03;;;;;;;0.88;0.80;;;;;;;;;;5065422;28;20039;-57
2022/06/21 05:19:33;;;;;;;0.93;0.93;;;;;;;;;;5060702;28;20577;-57
2022/06/21 05:22:07;;;;;;;0.98;0.95;;;;;;;;;;5065013;28;20031;-57
2022/06/21 05:24:33;;;;;;;1.20;1.10;;;;;;;;;;5064798;28;20435;-57
2022/06/21 05:27:06;;;;;;;1.90;1.00;;;;;;;;;;5064004;28;20454;-57
2022/06/21 05:30:04;;;;;;;1.75;1.05;;;;;;;;;;5064582;28;20036;-57
2022/06/21 05:32:42;;;;;;;1.33;0.90;;;;;;;;;;5048849;28;20124;-57
2022/06/21 05:35:13;;;;;;;1.00;0.95;;;;;;;;;;5065029;28;20060;-58
2022/06/21 05:37:48;;;;;;;1.23;0.93;;;;;;;;;;5064204;28;20027;-58
2022/06/21 05:40:29;;;;;;;1.10;1.00;;;;;;;;;;5064782;28;20895;-58
2022/06/21 05:42:55;;;;;;;1.98;1.33;;;;;;;;;;5068808;28;20044;-58
2022/06/21 05:45:25;;;;;;;1.40;1.15;;;;;;;;;;5064368;28;20039;-58
2022/06/21 05:48:18;;;;;;;1.38;1.10;;;;;;;;;;5066359;28;20434;-58
2022/06/21 05:50:44;;;;;;;1.25;1.13;;;;;;;;;;5052393;28;20075;-58
2022/06/21 05:53:17;;;;;;;1.40;1.15;;;;;;;;;;5046809;28;20025;-58
2022/06/21 05:55:45;;;;;;;1.20;1.10;;;;;;;;;;5065636;28;20119;-58
2022/06/21 05:58:17;;;;;;;1.45;1.23;;;;;;;;;;5066096;28;20060;-58
2022/06/21 06:00:46;;;;;;;1.00;0.90;;;;;;;;;;5065470;28;20123;-58
2022/06/21 06:03:15;;;;;;;1.85;1.10;;;;;;;;;;5065579;28;20074;-58
2022/06/21 06:05:42;;;;;;;1.10;1.00;;;;;;;;;;5052071;28;20029;-58
2022/06/21 06:08:19;;;;;;;1.23;1.00;;;;;;;;;;5049837;28;20488;-58
2022/06/21 06:10:45;;;;;;;0.90;0.90;;;;;;;;;;5060331;28;20111;-58
2022/06/21 06:13:47;;;;;;;1.52;1.10;;;;;;;;;;5064229;28;20420;-58
2022/06/21 06:16:16;;;;;;;1.20;1.02;;;;;;;;;;5016220;28;20479;-58
2022/06/21 06:18:51;;;;;;;1.42;1.10;;;;;;;;;;5064458;28;20041;-58
2022/06/21 06:21:29;;;;;;;0.80;0.80;;;;;;;;;;5049777;28;20079;-57
2022/06/21 06:24:03;;;;;;;1.30;1.10;;;;;;;;;;5049668;28;20560;-57
2022/06/21 06:26:33;;;;;;;2.05;1.35;;;;;;;;;;5049707;28;20028;-57
2022/06/21 06:29:15;;;;;;;1.02;0.90;;;;;;;;;;5062202;28;20081;-57
2022/06/21 06:31:51;;;;;;;1.13;0.80;;;;;;;;;;5069296;28;20399;-57
2022/06/21 06:34:23;;;;;;;1.30;1.20;;;;;;;;;;5081550;28;20043;-56
2022/06/21 06:36:57;;;;;;;2.05;1.10;;;;;;;;;;5075484;28;20021;-56
2022/06/21 06:39:23;;;;;;;2.70;1.05;;;;;;;;;;5069767;28;20514;-56
2022/06/21 06:41:52;;;;;;;1.60;1.05;;;;;;;;;;5069510;28;20032;-56
2022/06/21 06:44:21;;;;;;;0.93;0.70;;;;;;;;;;5069109;28;20025;-56
2022/06/21 06:46:49;;;;;;;1.10;1.00;;;;;;;;;;5062411;28;20092;-57
2022/06/21 06:49:34;;;;;;;1.50;0.90;;;;;;;;;;5069460;28;20036;-56
2022/06/21 06:52:03;;;;;;;1.73;0.90;;;;;;;;;;5068681;28;20029;-57
2022/06/21 06:54:33;;;;;;;1.13;0.93;;;;;;;;;;5067491;28;20028;-56
2022/06/21 06:57:02;;;;;;;1.58;1.00;;;;;;;;;;5068692;28;20021;-56
2022/06/21 06:59:29;;;;;;;1.05;0.90;;;;;;;;;;5070575;28;20041;-57
2022/06/21 07:02:15;;;;;;;0.85;0.85;;;;;;;;;;5061745;28;20427;-57
2022/06/21 07:04:43;;;;;;;1.15;1.00;;;;;;;;;;5067785;28;20024;-57
2022/06/21 07:07:17;;;;;;;0.95;0.90;;;;;;;;;;5079276;28;20051;-58
2022/06/21 07:09:50;;;;;;;1.10;0.80;;;;;;;;;;5073414;28;20093;-58
2022/06/21 07:12:24;;;;;;;0.80;0.60;;;;;;;;;;5073318;28;20025;-58
2022/06/21 07:14:51;;;;;;;0.93;0.63;;;;;;;;;;5065980;28;20040;-58
2022/06/21 07:17:21;;;;;;;1.00;0.90;;;;;;;;;;5069051;28;20028;-58
2022/06/21 07:19:48;;;;;;;0.70;0.70;;;;;;;;;;5069603;28;20071;-58
2022/06/21 07:22:19;;;;;;;0.85;0.85;;;;;;;;;;5069433;28;20028;-58
2022/06/21 07:24:48;;;;;;;0.90;0.70;;;;;;;;;;5069477;28;20446;-58
2022/06/21 07:27:16;;;;;;;0.95;0.80;;;;;;;;;;5069426;28;20119;-58
2022/06/21 07:30:04;;;;;;;0.80;0.80;;;;;;;;;;5069032;28;20024;-58
2022/06/21 07:32:39;;;;;;;0.70;0.70;;;;;;;;;;5069013;28;20480;-58
2022/06/21 07:35:09;;;;;;;0.70;0.70;;;;;;;;;;5069318;28;20028;-58
2022/06/21 07:37:45;;;;;;;0.95;0.60;;;;;;;;;;5069056;28;20479;-58
2022/06/21 07:40:17;;;;;;;0.50;0.50;;;;;;;;;;5069411;28;20027;-58
2022/06/21 07:42:46;;;;;;;0.63;0.63;;;;;;;;;;5068722;28;20027;-58
2022/06/21 07:45:35;;;;;;;0.60;0.60;;;;;;;;;;5068612;28;20025;-58
2022/06/21 07:48:05;;;;;;;0.73;0.70;;;;;;;;;;5063670;28;20083;-58
2022/06/21 07:50:40;;;;;;;0.60;0.60;;;;;;;;;;5068704;28;20025;-58
2022/06/21 07:53:22;;;;;;;0.52;0.50;;;;;;;;;;5068951;28;20048;-58
2022/06/21 07:55:58;;;;;;;0.52;0.52;;;;;;;;;;5079892;28;20510;-57
2022/06/21 07:58:34;;;;;;;1.05;0.60;;;;;;;;;;5067064;28;20514;-57
2022/06/21 08:06:42;;;;;;;0.70;0.68;;;;;;;;;;5067596;28;20100;-57
2022/06/21 08:09:13;;;;;;;1.02;0.90;;;;;;;;;;5067427;28;20039;-57
2022/06/21 08:11:41;;;;;;;0.90;0.80;;;;;;;;;;5066985;28;20067;-57
2022/06/21 08:14:08;;;;;;;1.17;0.60;;;;;;;;;;5064536;28;20056;-57
2022/06/21 08:16:38;;;;;;;0.85;0.70;;;;;;;;;;5080670;28;20036;-58
2022/06/21 08:19:14;;;;;;;1.02;0.70;;;;;;;;;;5087830;28;20032;-57
2022/06/21 08:21:46;;;;;;;0.90;0.60;;;;;;;;;;5087157;28;20085;-57
2022/06/21 08:24:17;;;;;;;1.05;0.60;;;;;;;;;;5087566;28;20469;-57
2022/06/21 08:26:56;;;;;;;0.50;0.50;;;;;;;;;;5079367;28;20100;-57
2022/06/21 08:29:28;;;;;;;1.08;0.80;;;;;;;;;;5066678;28;20399;-58
2022/06/21 08:31:59;;;;;;;0.80;0.70;;;;;;;;;;5067023;28;20029;-57
2022/06/21 08:34:43;;;;;;;0.95;0.88;;;;;;;;;;5066693;28;20032;-58
2022/06/21 08:37:33;;;;;;;0.85;0.85;;;;;;;;;;5077016;28;20028;-57
2022/06/21 08:40:13;;;;;;;1.92;0.80;;;;;;;;;;5063109;28;20060;-58
2022/06/21 08:42:59;;;;;;;0.90;0.73;;;;;;;;;;5076345;28;20099;-57
2022/06/21 08:45:40;;;;;;;1.05;0.80;;;;;;;;;;5086753;28;20076;-57
2022/06/21 08:48:24;;;;;;;0.60;0.60;;;;;;;;;;5087201;28;20039;-57
2022/06/21 08:50:59;;;;;;;0.60;0.60;;;;;;;;;;5063692;28;20024;-57
2022/06/21 08:53:25;;;;;;;0.80;0.80;;;;;;;;;;5067422;28;20103;-58
2022/06/21 08:56:08;;;;;;;0.75;0.70;;;;;;;;;;5066957;28;20119;-57
2022/06/21 08:58:43;;;;;;;0.73;0.70;;;;;;;;;;5066436;28;20036;-57
2022/06/21 09:01:14;;;;;;;0.77;0.70;;;;;;;;;;5066602;28;20098;-57
2022/06/21 09:03:46;;;;;;;1.05;0.90;;;;;;;;;;5065214;28;20060;-57
2022/06/21 09:06:21;;;;;;;1.25;0.80;;;;;;;;;;5065941;28;20025;-57
2022/06/21 09:08:48;;;;;;;1.33;1.10;;;;;;;;;;5065914;28;20040;-57
2022/06/21 09:11:33;;;;;;;1.02;0.88;;;;;;;;;;5066270;28;20025;-57
2022/06/21 09:14:18;;;;;;;1.67;0.70;;;;;;;;;;5065799;28;20036;-57
2022/06/21 09:17:03;;;;;;;1.55;1.00;;;;;;;;;;5061633;28;20060;-57
2022/06/21 09:19:38;;;;;;;2.40;1.25;;;;;;;;;;5064626;28;20029;-58
2022/06/21 09:22:05;;;;;;;1.23;0.93;;;;;;;;;;5066051;28;20066;-57
2022/06/21 09:24:31;;;;;;;0.80;0.70;;;;;;;;;;5074496;28;20031;-57
2022/06/21 09:27:19;;;;;;;1.00;0.90;;;;;;;;;;5076369;28;20557;-57
2022/06/21 09:30:03;;;;;;;1.17;1.00;;;;;;;;;;5060670;28;20040;-57
2022/06/21 09:32:39;;;;;;;1.20;0.90;;;;;;;;;;5059973;28;20103;-57
2022/06/21 09:35:23;;;;;;;1.15;0.82;;;;;;;;;;5059100;28;20063;-57
2022/06/21 09:37:56;;;;;;;1.52;0.80;;;;;;;;;;5058429;28;20037;-57
2022/06/21 09:40:32;;;;;;;0.77;0.65;;;;;;;;;;5068072;28;20530;-57
2022/06/21 09:43:09;;;;;;;0.70;0.70;;;;;;;;;;5072834;28;20028;-57
2022/06/21 09:45:37;;;;;;;0.80;0.80;;;;;;;;;;5069711;28;20029;-58
2022/06/21 09:48:03;;;;;;;0.65;0.65;;;;;;;;;;5065926;28;20025;-57
2022/06/21 09:50:39;;;;;;;0.50;0.50;;;;;;;;;;5066242;28;20028;-57
2022/06/21 09:53:08;;;;;;;0.80;0.70;;;;;;;;;;5064103;28;20568;-58
2022/06/21 09:55:37;;;;;;;0.95;0.90;;;;;;;;;;5065254;28;20374;-58
2022/06/21 09:58:06;;;;;;;2.72;0.63;;;;;;;;;;5065447;28;20029;-57
2022/06/21 10:00:38;;;;;;;1.10;0.70;;;;;;;;;;5065442;28;20443;-57
2022/06/21 10:03:16;;;;;;;2.95;1.00;;;;;;;;;;5072496;28;20040;-58
2022/06/21 10:05:47;;;;;;;1.48;0.80;;;;;;;;;;5065432;28;20115;-58
2022/06/21 10:08:26;;;;;;;4.70;1.20;;;;;;;;;;5065538;28;20031;-57
2022/06/21 10:11:04;;;;;;;3.78;1.48;;;;;;;;;;5081736;28;20094;-57
2022/06/21 10:13:49;;;;;;;2.30;1.25;;;;;;;;;;5073888;28;20461;-58
2022/06/21 10:16:24;;;;;;;2.70;1.27;;;;;;;;;;5060849;28;20129;-57
2022/06/21 10:18:56;;;;;;;4.15;1.40;;;;;;;;;;5071712;28;20116;-57
2022/06/21 10:21:41;;;;;;;5.28;1.80;;;;;;;;;;5086693;28;20020;-57
2022/06/21 10:24:13;;;;;;;3.30;1.75;;;;;;;;;;5067917;28;20023;-58
2022/06/21 10:27:12;;;;;;;5.30;1.80;;;;;;;;;;5074940;28;20028;-58
2022/06/21 10:29:47;;;;;;;2.63;1.52;;;;;;;;;;5048578;28;20048;-58
2022/06/21 10:32:19;;;;;;;2.20;1.45;;;;;;;;;;5045404;28;20036;-58
2022/06/21 10:34:48;;;;;;;1.92;1.10;;;;;;;;;;5051271;28;20031;-57
2022/06/21 10:37:17;;;;;;;1.42;1.10;;;;;;;;;;5067107;28;20051;-57
2022/06/21 10:39:49;;;;;;;5.38;1.88;;;;;;;;;;5068409;28;20037;-57
2022/06/21 10:45:22;;;;;;;3.50;1.20;;;;;;;;;;5069658;28;20027;-57
2022/06/21 10:47:48;;;;;;;2.60;1.25;;;;;;;;;;5084359;28;20020;-58
2022/06/21 10:50:14;;;;;;;2.65;1.58;;;;;;;;;;5082644;28;20440;-56
2022/06/21 10:52:53;;;;;;;2.13;1.30;;;;;;;;;;5061757;28;20107;-57
2022/06/21 10:55:19;;;;;;;3.80;1.42;;;;;;;;;;5079856;28;20109;-58
2022/06/21 10:57:58;;;;;;;4.75;1.52;;;;;;;;;;5069784;28;20032;-58
2022/06/21 11:03:28;;;;;;;3.70;1.80;;;;;;;;;;5077803;28;20084;-58
2022/06/21 11:06:26;;;;;;;7.68;2.30;;;;;;;;;;5069103;28;20400;-58
2022/06/21 11:08:59;;;;;;;4.15;1.92;;;;;;;;;;5057552;28;20059;-57
2022/06/21 11:11:25;;;;;;;2.08;1.40;;;;;;;;;;5056689;28;20037;-57
2022/06/21 11:14:06;;;;;;;2.85;1.45;;;;;;;;;;5049753;28;20503;-57
2022/06/21 11:16:32;;;;;;;4.32;1.50;;;;;;;;;;5065757;28;20028;-58
2022/06/21 11:19:13;;;;;;;2.25;1.60;;;;;;;;;;5071117;28;20033;-57
2022/06/21 11:21:48;;;;;;;2.92;1.80;;;;;;;;;;5067169;28;20025;-57
2022/06/21 11:24:33;;;;;;;3.25;1.77;;;;;;;;;;5063249;28;20031;-58
2022/06/21 11:27:01;;;;;;;8.40;2.53;;;;;;;;;;5074360;28;20033;-57
2022/06/21 11:29:43;;;;;;;7.47;2.03;;;;;;;;;;5063697;28;20039;-57
2022/06/21 11:32:12;;;;;;;4.25;1.90;;;;;;;;;;5049144;28;20048;-57
2022/06/21 11:35:07;;;;;;;4.00;1.60;;;;;;;;;;5054425;28;20041;-59
2022/06/21 11:37:39;;;;;;;4.20;2.13;;;;;;;;;;5030269;28;20523;-57
2022/06/21 11:40:26;;;;;;;7.45;2.33;;;;;;;;;;5068247;28;20514;-57
2022/06/21 11:42:54;;;;;;;6.97;2.42;;;;;;;;;;5068079;28;20082;-57
2022/06/21 11:45:26;;;;;;;10.88;3.10;;;;;;;;;;5052702;28;20759;-58
2022/06/21 11:47:55;;;;;;;5.57;1.90;;;;;;;;;;5048291;28;20524;-57
2022/06/21 11:50:27;;;;;;;6.25;2.42;;;;;;;;;;5047914;28;20025;-57
2022/06/21 11:52:56;;;;;;;6.95;2.50;;;;;;;;;;5048742;28;20042;-57
2022/06/21 11:55:25;;;;;;;7.35;2.60;;;;;;;;;;5047675;28;20116;-57
2022/06/21 11:58:10;;;;;;;10.00;3.33;;;;;;;;;;5048294;28;20025;-58
2022/06/21 12:00:43;;;;;;;8.80;3.00;;;;;;;;;;5061605;28;20112;-57
2022/06/21 12:03:12;;;;;;;9.05;3.78;;;;;;;;;;5065692;28;20063;-58
2022/06/21 12:05:45;;;;;;;8.45;3.08;;;;;;;;;;5068023;28;20078;-58
2022/06/21 12:08:40;;;;;;;7.23;2.77;;;;;;;;;;5068621;28;20067;-58
2022/06/21 12:11:23;;;;;;;11.23;3.95;;;;;;;;;;5062909;28;20119;-58
2022/06/21 12:14:04;;;;;;;8.63;3.03;;;;;;;;;;5066916;28;20089;-58
2022/06/21 12:16:30;;;;;;;6.93;2.88;;;;;;;;;;5067190;28;20039;-58
2022/06/21 12:19:03;;;;;;;13.02;3.90;;;;;;;;;;5067538;28;20395;-58
2022/06/21 12:21:35;;;;;;;11.67;4.03;;;;;;;;;;5065907;28;20408;-58
2022/06/21 12:24:27;;;;;;;6.20;2.47;;;;;;;;;;5067685;28;20029;-58
2022/06/21 12:26:55;;;;;;;7.40;2.95;;;;;;;;;;5049836;28;20049;-58
2022/06/21 12:29:23;;;;;;;10.13;2.85;;;;;;;;;;5047181;28;20028;-58
2022/06/21 12:31:55;;;;;;;7.10;3.05;;;;;;;;;;5058793;28;20032;-57
2022/06/21 12:34:27;;;;;;;11.35;3.45;;;;;;;;;;5087023;28;20035;-58
2022/06/21 12:37:26;;;;;;;9.63;3.67;;;;;;;;;;5084877;28;20074;-58
2022/06/21 12:39:52;;;;;;;8.30;2.90;;;;;;;;;;5054742;28;20041;-58
2022/06/21 12:42:37;;;;;;;8.20;3.47;;;;;;;;;;5066954;28;20029;-58
2022/06/21 12:45:09;;;;;;;8.70;3.47;;;;;;;;;;5067049;28;20387;-58
2022/06/21 12:47:57;;;;;;;9.77;3.00;;;;;;;;;;5083208;28;20063;-58
2022/06/21 12:50:42;;;;;;;7.85;3.22;;;;;;;;;;5073492;28;20553;-58
2022/06/21 12:53:26;;;;;;;8.73;2.92;;;;;;;;;;5067195;28;20016;-58
2022/06/21 12:56:06;;;;;;;11.75;3.08;;;;;;;;;;5066462;28;20028;-58
2022/06/21 12:58:40;;;;;;;8.50;2.95;;;;;;;;;;5065538;28;20036;-58
2022/06/21 13:01:06;;;;;;;;;;;;;;;;;;5059287;28;20028;-58
2022/06/21 13:03:35;;;;;;;12.68;3.67;;;;;;;;;;5050610;28;19912;-57
2022/06/21 13:06:20;;;;;;;14.10;3.30;;;;;;;;;;5066326;28;20059;-58
2022/06/21 13:08:46;;;;;;;6.35;2.78;;;;;;;;;;5066418;28;20033;-58
2022/06/21 13:11:14;;;;;;;7.70;2.70;;;;;;;;;;5066203;28;20054;-58
2022/06/21 13:13:59;;;;;;;7.82;2.67;;;;;;;;;;5067492;28;20110;-59
2022/06/21 13:16:25;;;;;;;7.22;2.67;;;;;;;;;;5065987;28;20028;-58
2022/06/21 13:19:02;;;;;;;8.77;2.90;;;;;;;;;;5066285;28;20029;-58
2022/06/21 13:21:31;;;;;;;7.68;3.08;;;;;;;;;;5064892;28;20020;-58
2022/06/21 13:24:03;;;;;;;7.90;3.13;;;;;;;;;;5066506;28;20020;-59
2022/06/21 13:26:30;;;;;;;10.23;2.53;;;;;;;;;;5063522;28;20067;-60
2022/06/21 13:29:26;;;;;;;12.82;3.72;;;;;;;;;;5075092;28;20139;-57
2022/06/21 13:31:55;;;;;;;9.32;2.53;;;;;;;;;;5053049;28;20515;-57
2022/06/21 13:34:36;;;;;;;12.32;3.30;;;;;;;;;;5046238;28;20029;-58
2022/06/21 13:37:14;;;;;;;6.60;2.80;;;;;;;;;;5065651;28;20038;-58
2022/06/21 13:39:55;;;;;;;7.15;2.90;;;;;;;;;;5066601;28;20028;-57
2022/06/21 13:42:40;;;;;;;8.48;2.80;;;;;;;;;;5065946;28;20032;-58
2022/06/21 13:45:12;;;;;;;6.93;2.72;;;;;;;;;;5061424;28;20024;-58
2022/06/21 13:47:41;;;;;;;9.95;2.65;;;;;;;;;;5065544;28;20023;-58
2022/06/21 13:50:10;;;;;;;9.85;3.17;;;;;;;;;;5065012;28;20031;-58
2022/06/21 13:52:56;;;;;;;7.85;2.75;;;;;;;;;;5065801;28;20029;-58
2022/06/21 13:55:33;;;;;;;10.73;2.75;;;;;;;;;;5065533;28;20272;-58
2022/06/21 13:58:13;;;;;;;7.38;3.00;;;;;;;;;;5068078;28;20099;-58
2022/06/21 14:00:45;;;;;;;7.50;3.00;;;;;;;;;;5066381;28;20024;-59
2022/06/21 14:03:11;;;;;;;6.63;2.92;;;;;;;;;;5070223;28;20036;-58
2022/06/21 14:05:41;;;;;;;12.15;3.15;;;;;;;;;;5068534;28;20560;-59
2022/06/21 14:08:20;;;;;;;9.68;3.08;;;;;;;;;;5045797;28;20032;-59
2022/06/21 14:10:52;;;;;;;9.50;3.03;;;;;;;;;;5062068;28;20040;-58
2022/06/21 14:13:30;;;;;;;11.45;3.22;;;;;;;;;;5060259;28;20048;-58
2022/06/21 14:15:56;;;;;;;10.85;3.58;;;;;;;;;;5049128;28;20039;-58
2022/06/21 14:18:35;;;;;;;9.18;3.65;;;;;;;;;;5067853;28;20033;-58
2022/06/21 14:21:10;;;;;;;9.20;3.03;;;;;;;;;;5065671;28;20024;-58
2022/06/21 14:23:36;;;;;;;9.93;3.25;;;;;;;;;;5065366;28;20029;-58
2022/06/21 14:26:02;;;;;;;7.28;2.70;;;;;;;;;;5066232;28;20059;-58
2022/06/21 14:28:43;;;;;;;11.27;3.63;;;;;;;;;;5070110;28;20033;-59
2022/06/21 14:31:29;;;;;;;12.45;3.75;;;;;;;;;;5063977;28;20107;-58
2022/06/21 14:34:07;;;;;;;10.43;3.88;;;;;;;;;;5046650;28;20079;-59
2022/06/21 14:36:53;;;;;;;15.65;4.28;;;;;;;;;;5058140;28;20037;-58
2022/06/21 14:39:23;;;;;;;9.93;3.58;;;;;;;;;;5055185;28;20116;-58
2022/06/21 14:41:59;;;;;;;8.88;3.47;;;;;;;;;;5047738;28;20367;-58
2022/06/21 14:44:30;;;;;;;7.82;3.50;;;;;;;;;;5047407;28;20067;-58
2022/06/21 14:47:02;;;;;;;9.73;3.38;;;;;;;;;;5062241;28;20260;-58
2022/06/21 14:49:31;;;;;;;11.10;3.63;;;;;;;;;;5066040;28;20024;-58
2022/06/21 14:52:16;;;;;;;9.07;3.60;;;;;;;;;;5048058;28;20506;-59
2022/06/21 14:55:00;;;;;;;8.50;3.50;;;;;;;;;;5058942;28;20047;-59
2022/06/21 14:57:35;;;;;;;7.45;3.47;;;;;;;;;;5062007;28;20032;-58
2022/06/21 15:00:03;;;;;;;6.00;3.05;;;;;;;;;;5068985;28;20020;-58
2022/06/21 15:02:39;;;;;;;11.13;3.22;;;;;;;;;;5067143;28;20509;-58
2022/06/21 15:05:11;;;;;;;8.25;3.10;;;;;;;;;;5079207;28;20024;-57
2022/06/21 15:07:37;;;;;;;9.38;3.60;;;;;;;;;;5066450;28;20522;-58
2022/06/21 15:10:17;;;;;;;6.15;2.83;;;;;;;;;;5073326;28;20087;-59
2022/06/21 15:12:47;;;;;;;6.18;3.03;;;;;;;;;;5075801;28;20032;-59
2022/06/21 15:15:17;;;;;;;13.10;3.63;;;;;;;;;;5085411;28;20102;-58
2022/06/21 15:17:50;;;;;;;9.30;3.67;;;;;;;;;;5072171;28;20039;-59
2022/06/21 15:20:19;;;;;;;11.85;3.45;;;;;;;;;;5072029;28;20028;-58
2022/06/21 15:22:51;;;;;;;8.80;3.47;;;;;;;;;;5065999;28;20024;-59
2022/06/21 15:25:26;;;;;;;9.52;3.92;;;;;;;;;;5066550;28;20035;-59
2022/06/21 15:27:58;;;;;;;10.48;3.00;;;;;;;;;;5048784;28;20799;-59
2022/06/21 15:30:25;;;;;;;9.70;3.47;;;;;;;;;;5048216;28;20071;-58
2022/06/21 15:32:54;;;;;;;8.35;3.60;;;;;;;;;;5068291;28;20016;-58
2022/06/21 15:35:30;;;;;;;8.50;3.28;;;;;;;;;;5068549;28;20082;-59